Portada
METAR-TAF:

METAR-TAF

Aeroports :

Aeroport Internacional Diori Hamani

Niamey, Níger

latitud: 13-29N, longitud: 002-10E, altitud: 223 m

Observació

L'informe es va fer fa 45 minuts, a les 07:00 UTC
Vent 2 kt del Nord/Nord-Est
Temperatura 25°C
Humitat 22%
Pressió 1011 hPa
Visibilitat: 4000 m
Pols estès

METAR: DRRN 150700Z 03002KT 4000 DU NSC 25/02 Q1011 NOSIG

Hora: 08:45 (07:45 UTC)

Pronòstic

L'informe es va fer fa 2 hores i 45 minuts, a les 05:00 UTC
Pronòstic vàlid del 15 a les 06 UTC al 16 a les 12 UTC
Vent 10 kt del Est/Nord-Est
Visibilitat: 8000 m
Probabilitat 30% :
Temporalment
l' 15 a les 06 UTC al 15 a les 08 UTC
Visibilitat: 4800 m
Pols estès

TAF: DRRN 150500Z 1506/1612 07010KT 8000 NSC PROB30 TEMPO 1506/1508 4800 DU

Observacions i pronòstics meteorològics de més de 4000 aeroports (METAR i TAF).

Les estacions disponibles són els punts grocs i vermells al mapa.

Posi el ratolí al punt desitjat per veure el nom de l'estació.

Feu clic per veure les observacions i els pronòstics meteorològics.

Per canviar el mapa: feu clic els botons verds amb una creu de color negre per apropar; al botó verd amb un guió per allunyar la imatge; o en les fletxes verdes per a mapes adjacents.


METAR-TAF: